Terminal Aerodrome Forecast
Issued by NWS Portland, ME

Home | Current Version | Previous Version | Text Only | Print | Product List | Glossary On
Versions: 1 2 3 4 5 6 7 8 9 10 11 12 13 14 15 16 17 18 19 20 21
000
FTUS41 KGYX 220159 AAB
TAFCON
TAF AMD
KCON 220159Z 2202/2224 00000KT P6SM OVC008
     FM220400 00000KT 3SM BR OVC005
     FM220900 27005KT 1SM BR OVC003
     FM221200 28008KT P6SM BKN025
     FM221500 28012G20KT P6SM SCT250=

USA.gov is the U.S. government's official web portal to all federal, state and local government web resources and services.